sensor_id;sensor_type;location;lat;lon;timestamp;temperature;humidity
11144;DHT22;5626;44.730;10.276;2022-09-27T00:01:47;15.40;99.70
11144;DHT22;5626;44.730;10.276;2022-09-27T00:04:16;15.60;99.50
11144;DHT22;5626;44.730;10.276;2022-09-27T00:06:46;15.70;99.40
11144;DHT22;5626;44.730;10.276;2022-09-27T00:09:16;15.80;99.50
11144;DHT22;5626;44.730;10.276;2022-09-27T00:11:47;15.90;99.30
11144;DHT22;5626;44.730;10.276;2022-09-27T00:14:17;15.90;99.10
11144;DHT22;5626;44.730;10.276;2022-09-27T00:16:46;16.00;98.90
11144;DHT22;5626;44.730;10.276;2022-09-27T00:19:19;16.00;98.90
11144;DHT22;5626;44.730;10.276;2022-09-27T00:21:49;16.10;98.90
11144;DHT22;5626;44.730;10.276;2022-09-27T00:24:21;16.00;98.70
11144;DHT22;5626;44.730;10.276;2022-09-27T00:26:52;16.10;98.60
11144;DHT22;5626;44.730;10.276;2022-09-27T00:29:22;16.20;98.40
11144;DHT22;5626;44.730;10.276;2022-09-27T00:31:51;16.30;98.30
11144;DHT22;5626;44.730;10.276;2022-09-27T00:34:23;16.30;98.40
11144;DHT22;5626;44.730;10.276;2022-09-27T00:36:53;16.30;98.10
11144;DHT22;5626;44.730;10.276;2022-09-27T00:39:24;16.30;98.20
11144;DHT22;5626;44.730;10.276;2022-09-27T00:41:55;16.30;98.20
11144;DHT22;5626;44.730;10.276;2022-09-27T00:45:02;16.30;98.10
11144;DHT22;5626;44.730;10.276;2022-09-27T00:47:39;16.30;98.10
11144;DHT22;5626;44.730;10.276;2022-09-27T00:50:20;16.30;98.20
11144;DHT22;5626;44.730;10.276;2022-09-27T00:52:57;16.30;98.50
11144;DHT22;5626;44.730;10.276;2022-09-27T00:55:31;16.30;98.40
11144;DHT22;5626;44.730;10.276;2022-09-27T00:58:05;16.40;98.50
11144;DHT22;5626;44.730;10.276;2022-09-27T01:00:36;16.40;98.40
11144;DHT22;5626;44.730;10.276;2022-09-27T01:03:09;16.40;98.10
11144;DHT22;5626;44.730;10.276;2022-09-27T01:05:42;16.50;98.10
11144;DHT22;5626;44.730;10.276;2022-09-27T01:08:12;16.50;98.10
11144;DHT22;5626;44.730;10.276;2022-09-27T01:10:50;16.50;98.10
11144;DHT22;5626;44.730;10.276;2022-09-27T01:13:32;16.60;98.10
11144;DHT22;5626;44.730;10.276;2022-09-27T01:16:09;16.50;98.50
11144;DHT22;5626;44.730;10.276;2022-09-27T01:18:49;16.50;98.70
11144;DHT22;5626;44.730;10.276;2022-09-27T01:21:38;16.50;98.70
11144;DHT22;5626;44.730;10.276;2022-09-27T01:24:54;16.50;99.30
11144;DHT22;5626;44.730;10.276;2022-09-27T01:30:41;16.10;99.80
11144;DHT22;5626;44.730;10.276;2022-09-27T01:33:24;16.00;99.80
11144;DHT22;5626;44.730;10.276;2022-09-27T01:36:10;16.00;99.80
11144;DHT22;5626;44.730;10.276;2022-09-27T01:38:50;15.90;99.70
11144;DHT22;5626;44.730;10.276;2022-09-27T01:41:32;16.00;99.50
11144;DHT22;5626;44.730;10.276;2022-09-27T01:44:33;16.00;99.40
11144;DHT22;5626;44.730;10.276;2022-09-27T01:47:15;16.00;99.30
11144;DHT22;5626;44.730;10.276;2022-09-27T01:50:12;16.00;99.20
11144;DHT22;5626;44.730;10.276;2022-09-27T01:52:47;16.00;98.90
11144;DHT22;5626;44.730;10.276;2022-09-27T01:55:23;16.00;99.00
11144;DHT22;5626;44.730;10.276;2022-09-27T01:58:21;15.90;99.20
11144;DHT22;5626;44.730;10.276;2022-09-27T02:00:54;15.90;99.30
11144;DHT22;5626;44.730;10.276;2022-09-27T02:03:32;15.90;99.30
11144;DHT22;5626;44.730;10.276;2022-09-27T02:06:23;15.80;99.50
11144;DHT22;5626;44.730;10.276;2022-09-27T02:09:04;15.70;99.70
11144;DHT22;5626;44.730;10.276;2022-09-27T02:11:54;15.70;99.80
11144;DHT22;5626;44.730;10.276;2022-09-27T02:14:31;15.60;99.90
11144;DHT22;5626;44.730;10.276;2022-09-27T02:17:07;15.50;99.90
11144;DHT22;5626;44.730;10.276;2022-09-27T02:19:48;15.50;99.90
11144;DHT22;5626;44.730;10.276;2022-09-27T02:22:32;15.40;99.90
11144;DHT22;5626;44.730;10.276;2022-09-27T02:25:10;15.30;99.90
11144;DHT22;5626;44.730;10.276;2022-09-27T02:27:51;15.30;99.90
11144;DHT22;5626;44.730;10.276;2022-09-27T02:30:26;15.30;99.90
11144;DHT22;5626;44.730;10.276;2022-09-27T02:33:07;15.20;99.90
11144;DHT22;5626;44.730;10.276;2022-09-27T02:35:38;15.20;99.90
11144;DHT22;5626;44.730;10.276;2022-09-27T02:38:08;15.20;99.90
11144;DHT22;5626;44.730;10.276;2022-09-27T02:40:42;15.20;99.90
11144;DHT22;5626;44.730;10.276;2022-09-27T02:43:13;15.20;99.90
11144;DHT22;5626;44.730;10.276;2022-09-27T02:45:55;15.20;99.90
11144;DHT22;5626;44.730;10.276;2022-09-27T02:48:34;14.90;99.90
11144;DHT22;5626;44.730;10.276;2022-09-27T02:51:24;14.70;99.90
11144;DHT22;5626;44.730;10.276;2022-09-27T02:54:07;14.60;99.90
11144;DHT22;5626;44.730;10.276;2022-09-27T02:57:27;14.70;99.90
11144;DHT22;5626;44.730;10.276;2022-09-27T03:00:25;14.70;99.90
11144;DHT22;5626;44.730;10.276;2022-09-27T03:03:22;14.70;99.90
11144;DHT22;5626;44.730;10.276;2022-09-27T03:06:03;14.70;99.90
11144;DHT22;5626;44.730;10.276;2022-09-27T03:08:36;14.70;99.90
11144;DHT22;5626;44.730;10.276;2022-09-27T03:11:07;14.70;99.90
11144;DHT22;5626;44.730;10.276;2022-09-27T03:13:36;14.70;99.90
11144;DHT22;5626;44.730;10.276;2022-09-27T03:16:17;14.70;99.90
11144;DHT22;5626;44.730;10.276;2022-09-27T03:19:07;14.80;99.90
11144;DHT22;5626;44.730;10.276;2022-09-27T03:22:00;14.80;99.90
11144;DHT22;5626;44.730;10.276;2022-09-27T03:24:31;14.80;99.90
11144;DHT22;5626;44.730;10.276;2022-09-27T03:27:01;14.80;99.90
11144;DHT22;5626;44.730;10.276;2022-09-27T03:29:31;14.80;99.90
11144;DHT22;5626;44.730;10.276;2022-09-27T03:32:06;14.80;99.90
11144;DHT22;5626;44.730;10.276;2022-09-27T03:35:05;14.80;99.90
11144;DHT22;5626;44.730;10.276;2022-09-27T03:37:35;14.80;99.90
11144;DHT22;5626;44.730;10.276;2022-09-27T03:40:08;14.70;99.90
11144;DHT22;5626;44.730;10.276;2022-09-27T03:42:38;14.70;99.90
11144;DHT22;5626;44.730;10.276;2022-09-27T03:45:09;14.70;99.90
11144;DHT22;5626;44.730;10.276;2022-09-27T03:47:41;14.70;99.90
11144;DHT22;5626;44.730;10.276;2022-09-27T03:50:11;14.60;99.90
11144;DHT22;5626;44.730;10.276;2022-09-27T03:52:41;14.60;99.90
11144;DHT22;5626;44.730;10.276;2022-09-27T03:55:13;14.60;99.90
11144;DHT22;5626;44.730;10.276;2022-09-27T03:57:44;14.50;99.90
11144;DHT22;5626;44.730;10.276;2022-09-27T04:00:17;14.50;99.90
11144;DHT22;5626;44.730;10.276;2022-09-27T04:02:46;14.50;99.90
11144;DHT22;5626;44.730;10.276;2022-09-27T04:05:22;14.40;99.90
11144;DHT22;5626;44.730;10.276;2022-09-27T04:07:56;14.40;99.90
11144;DHT22;5626;44.730;10.276;2022-09-27T04:10:28;14.40;99.90
11144;DHT22;5626;44.730;10.276;2022-09-27T04:12:57;14.30;99.90
11144;DHT22;5626;44.730;10.276;2022-09-27T04:15:32;14.30;99.90
11144;DHT22;5626;44.730;10.276;2022-09-27T04:18:20;14.40;99.90
11144;DHT22;5626;44.730;10.276;2022-09-27T04:21:08;14.30;99.90
11144;DHT22;5626;44.730;10.276;2022-09-27T04:23:44;14.30;99.90
11144;DHT22;5626;44.730;10.276;2022-09-27T04:26:18;14.20;99.90
11144;DHT22;5626;44.730;10.276;2022-09-27T04:28:58;14.20;99.90
11144;DHT22;5626;44.730;10.276;2022-09-27T04:31:28;14.20;99.90
11144;DHT22;5626;44.730;10.276;2022-09-27T04:34:17;14.20;99.90
11144;DHT22;5626;44.730;10.276;2022-09-27T04:37:10;14.20;99.90
11144;DHT22;5626;44.730;10.276;2022-09-27T04:39:43;14.10;99.90
11144;DHT22;5626;44.730;10.276;2022-09-27T04:42:14;14.00;99.90
11144;DHT22;5626;44.730;10.276;2022-09-27T04:44:44;13.90;99.90
11144;DHT22;5626;44.730;10.276;2022-09-27T04:47:15;13.80;99.90
11144;DHT22;5626;44.730;10.276;2022-09-27T04:49:45;13.70;99.90
11144;DHT22;5626;44.730;10.276;2022-09-27T04:52:15;13.70;99.90
11144;DHT22;5626;44.730;10.276;2022-09-27T04:54:44;13.70;99.90
11144;DHT22;5626;44.730;10.276;2022-09-27T04:57:16;13.70;99.90
11144;DHT22;5626;44.730;10.276;2022-09-27T04:59:46;13.70;99.90
11144;DHT22;5626;44.730;10.276;2022-09-27T05:02:19;13.70;99.90
11144;DHT22;5626;44.730;10.276;2022-09-27T05:05:18;13.80;99.90
11144;DHT22;5626;44.730;10.276;2022-09-27T05:07:49;13.80;99.90
11144;DHT22;5626;44.730;10.276;2022-09-27T05:10:31;13.80;99.90
11144;DHT22;5626;44.730;10.276;2022-09-27T05:13:02;13.80;99.90
11144;DHT22;5626;44.730;10.276;2022-09-27T05:15:32;13.80;99.90
11144;DHT22;5626;44.730;10.276;2022-09-27T05:18:32;13.80;99.90
11144;DHT22;5626;44.730;10.276;2022-09-27T05:21:38;13.70;99.90
11144;DHT22;5626;44.730;10.276;2022-09-27T05:24:07;13.60;99.90
11144;DHT22;5626;44.730;10.276;2022-09-27T05:26:37;13.60;99.90
11144;DHT22;5626;44.730;10.276;2022-09-27T05:29:08;13.60;99.90
11144;DHT22;5626;44.730;10.276;2022-09-27T05:31:40;13.70;99.90
11144;DHT22;5626;44.730;10.276;2022-09-27T05:34:10;13.70;99.90
11144;DHT22;5626;44.730;10.276;2022-09-27T05:36:47;13.70;99.90
11144;DHT22;5626;44.730;10.276;2022-09-27T05:39:17;13.70;99.90
11144;DHT22;5626;44.730;10.276;2022-09-27T05:41:47;13.80;99.90
11144;DHT22;5626;44.730;10.276;2022-09-27T05:44:23;13.80;99.90
11144;DHT22;5626;44.730;10.276;2022-09-27T05:47:00;13.80;99.90
11144;DHT22;5626;44.730;10.276;2022-09-27T05:49:32;13.90;99.90
11144;DHT22;5626;44.730;10.276;2022-09-27T05:52:03;13.90;99.90
11144;DHT22;5626;44.730;10.276;2022-09-27T05:54:33;13.90;99.90
11144;DHT22;5626;44.730;10.276;2022-09-27T05:57:03;14.00;99.90
11144;DHT22;5626;44.730;10.276;2022-09-27T05:59:54;14.00;99.90
11144;DHT22;5626;44.730;10.276;2022-09-27T06:02:39;14.10;99.90
11144;DHT22;5626;44.730;10.276;2022-09-27T06:05:41;14.20;99.90
11144;DHT22;5626;44.730;10.276;2022-09-27T06:08:38;14.20;99.90
11144;DHT22;5626;44.730;10.276;2022-09-27T06:11:12;14.20;99.90
11144;DHT22;5626;44.730;10.276;2022-09-27T06:13:42;14.20;99.90
11144;DHT22;5626;44.730;10.276;2022-09-27T06:16:14;14.30;99.90
11144;DHT22;5626;44.730;10.276;2022-09-27T06:18:45;14.30;99.90
11144;DHT22;5626;44.730;10.276;2022-09-27T06:21:16;14.40;99.90
11144;DHT22;5626;44.730;10.276;2022-09-27T06:23:53;14.50;99.90
11144;DHT22;5626;44.730;10.276;2022-09-27T06:26:29;14.50;99.90
11144;DHT22;5626;44.730;10.276;2022-09-27T06:29:26;14.60;99.90
11144;DHT22;5626;44.730;10.276;2022-09-27T06:32:01;14.80;99.90
11144;DHT22;5626;44.730;10.276;2022-09-27T06:34:41;14.90;99.90
11144;DHT22;5626;44.730;10.276;2022-09-27T06:37:11;15.00;99.90
11144;DHT22;5626;44.730;10.276;2022-09-27T06:39:42;15.10;99.90
11144;DHT22;5626;44.730;10.276;2022-09-27T06:42:30;15.30;99.90
11144;DHT22;5626;44.730;10.276;2022-09-27T06:45:09;15.50;99.90
11144;DHT22;5626;44.730;10.276;2022-09-27T06:48:05;15.70;99.90
11144;DHT22;5626;44.730;10.276;2022-09-27T06:50:48;15.90;99.90
11144;DHT22;5626;44.730;10.276;2022-09-27T06:53:20;16.00;99.90
11144;DHT22;5626;44.730;10.276;2022-09-27T06:55:51;16.10;99.90
11144;DHT22;5626;44.730;10.276;2022-09-27T06:58:21;16.30;99.90
11144;DHT22;5626;44.730;10.276;2022-09-27T07:01:34;16.40;99.90
11144;DHT22;5626;44.730;10.276;2022-09-27T07:04:31;16.50;99.90
11144;DHT22;5626;44.730;10.276;2022-09-27T07:07:20;16.60;99.90
11144;DHT22;5626;44.730;10.276;2022-09-27T07:09:50;16.80;99.90
11144;DHT22;5626;44.730;10.276;2022-09-27T07:12:29;16.90;99.90
11144;DHT22;5626;44.730;10.276;2022-09-27T07:15:01;17.00;99.90
11144;DHT22;5626;44.730;10.276;2022-09-27T07:17:33;17.10;99.90
11144;DHT22;5626;44.730;10.276;2022-09-27T07:20:07;17.20;99.90
11144;DHT22;5626;44.730;10.276;2022-09-27T07:22:39;17.20;99.90
11144;DHT22;5626;44.730;10.276;2022-09-27T07:25:11;17.30;99.90
11144;DHT22;5626;44.730;10.276;2022-09-27T07:27:40;17.30;99.90
11144;DHT22;5626;44.730;10.276;2022-09-27T07:30:11;17.50;99.90
11144;DHT22;5626;44.730;10.276;2022-09-27T07:32:41;17.60;99.70
11144;DHT22;5626;44.730;10.276;2022-09-27T07:35:14;17.80;99.60
11144;DHT22;5626;44.730;10.276;2022-09-27T07:37:44;17.90;99.30
11144;DHT22;5626;44.730;10.276;2022-09-27T07:40:14;17.90;98.80
11144;DHT22;5626;44.730;10.276;2022-09-27T07:42:44;18.10;99.00
11144;DHT22;5626;44.730;10.276;2022-09-27T07:45:13;18.30;99.00
11144;DHT22;5626;44.730;10.276;2022-09-27T07:48:09;18.50;98.90
11144;DHT22;5626;44.730;10.276;2022-09-27T07:50:57;18.70;98.40
11144;DHT22;5626;44.730;10.276;2022-09-27T07:54:02;18.90;98.20
11144;DHT22;5626;44.730;10.276;2022-09-27T07:57:03;19.10;98.00
11144;DHT22;5626;44.730;10.276;2022-09-27T07:59:42;19.20;97.40
11144;DHT22;5626;44.730;10.276;2022-09-27T08:02:16;19.30;97.00
11144;DHT22;5626;44.730;10.276;2022-09-27T08:04:48;19.40;96.70
11144;DHT22;5626;44.730;10.276;2022-09-27T08:07:20;19.50;96.30
11144;DHT22;5626;44.730;10.276;2022-09-27T08:09:53;19.60;96.30
11144;DHT22;5626;44.730;10.276;2022-09-27T08:12:23;19.70;95.80
11144;DHT22;5626;44.730;10.276;2022-09-27T08:14:54;19.80;95.60
11144;DHT22;5626;44.730;10.276;2022-09-27T08:17:28;20.00;95.70
11144;DHT22;5626;44.730;10.276;2022-09-27T08:20:18;20.10;95.50
11144;DHT22;5626;44.730;10.276;2022-09-27T08:23:19;20.30;95.00
11144;DHT22;5626;44.730;10.276;2022-09-27T08:25:56;20.40;94.50
11144;DHT22;5626;44.730;10.276;2022-09-27T08:28:31;20.50;94.40
11144;DHT22;5626;44.730;10.276;2022-09-27T08:31:05;20.60;94.10
11144;DHT22;5626;44.730;10.276;2022-09-27T08:33:35;20.70;93.70
11144;DHT22;5626;44.730;10.276;2022-09-27T08:36:10;20.80;93.70
11144;DHT22;5626;44.730;10.276;2022-09-27T08:38:42;20.90;93.70
11144;DHT22;5626;44.730;10.276;2022-09-27T08:41:18;21.10;93.30
11144;DHT22;5626;44.730;10.276;2022-09-27T08:43:55;21.20;93.00
11144;DHT22;5626;44.730;10.276;2022-09-27T08:46:34;21.30;92.80
11144;DHT22;5626;44.730;10.276;2022-09-27T08:49:11;21.40;92.60
11144;DHT22;5626;44.730;10.276;2022-09-27T08:51:43;21.50;91.80
11144;DHT22;5626;44.730;10.276;2022-09-27T08:54:21;21.60;91.60
11144;DHT22;5626;44.730;10.276;2022-09-27T08:56:53;21.80;91.70
11144;DHT22;5626;44.730;10.276;2022-09-27T08:59:27;21.90;91.60
11144;DHT22;5626;44.730;10.276;2022-09-27T09:01:59;22.00;91.00
11144;DHT22;5626;44.730;10.276;2022-09-27T09:04:34;22.10;90.50
11144;DHT22;5626;44.730;10.276;2022-09-27T09:07:09;22.10;91.20
11144;DHT22;5626;44.730;10.276;2022-09-27T09:09:50;22.20;90.90
11144;DHT22;5626;44.730;10.276;2022-09-27T09:12:31;22.30;90.80
11144;DHT22;5626;44.730;10.276;2022-09-27T09:15:40;22.40;93.70
11144;DHT22;5626;44.730;10.276;2022-09-27T09:18:41;22.50;93.20
11144;DHT22;5626;44.730;10.276;2022-09-27T09:21:49;22.60;93.10
11144;DHT22;5626;44.730;10.276;2022-09-27T09:24:40;22.70;92.60
11144;DHT22;5626;44.730;10.276;2022-09-27T09:27:18;22.70;91.40
11144;DHT22;5626;44.730;10.276;2022-09-27T09:30:02;22.80;92.10
11144;DHT22;5626;44.730;10.276;2022-09-27T09:32:49;22.90;92.40
11144;DHT22;5626;44.730;10.276;2022-09-27T09:35:25;23.00;92.30
11144;DHT22;5626;44.730;10.276;2022-09-27T09:37:59;23.10;91.20
11144;DHT22;5626;44.730;10.276;2022-09-27T09:40:33;23.20;91.70
11144;DHT22;5626;44.730;10.276;2022-09-27T09:43:09;23.30;91.40
11144;DHT22;5626;44.730;10.276;2022-09-27T09:45:44;23.40;91.20
11144;DHT22;5626;44.730;10.276;2022-09-27T09:48:23;23.40;90.10
11144;DHT22;5626;44.730;10.276;2022-09-27T09:50:59;23.40;88.60
11144;DHT22;5626;44.730;10.276;2022-09-27T09:53:38;23.50;90.00
11144;DHT22;5626;44.730;10.276;2022-09-27T09:56:14;23.50;85.90
11144;DHT22;5626;44.730;10.276;2022-09-27T09:58:52;23.40;90.40
11144;DHT22;5626;44.730;10.276;2022-09-27T10:01:33;23.40;90.00
11144;DHT22;5626;44.730;10.276;2022-09-27T10:04:04;23.50;88.30
11144;DHT22;5626;44.730;10.276;2022-09-27T10:06:35;23.60;87.10
11144;DHT22;5626;44.730;10.276;2022-09-27T10:09:05;23.70;85.70
11144;DHT22;5626;44.730;10.276;2022-09-27T10:11:44;23.70;87.20
11144;DHT22;5626;44.730;10.276;2022-09-27T10:14:26;23.70;85.60
11144;DHT22;5626;44.730;10.276;2022-09-27T10:17:03;23.90;87.30
11144;DHT22;5626;44.730;10.276;2022-09-27T10:19:36;24.00;85.30
11144;DHT22;5626;44.730;10.276;2022-09-27T10:22:13;24.20;86.40
11144;DHT22;5626;44.730;10.276;2022-09-27T10:24:57;24.20;86.00
11144;DHT22;5626;44.730;10.276;2022-09-27T10:27:57;24.30;84.80
11144;DHT22;5626;44.730;10.276;2022-09-27T10:30:34;24.30;85.60
11144;DHT22;5626;44.730;10.276;2022-09-27T10:33:15;24.30;84.70
11144;DHT22;5626;44.730;10.276;2022-09-27T10:35:59;24.40;85.70
11144;DHT22;5626;44.730;10.276;2022-09-27T10:38:35;24.50;85.90
11144;DHT22;5626;44.730;10.276;2022-09-27T10:41:23;24.60;85.10
11144;DHT22;5626;44.730;10.276;2022-09-27T10:44:19;24.60;85.70
11144;DHT22;5626;44.730;10.276;2022-09-27T10:47:06;24.50;85.40
11144;DHT22;5626;44.730;10.276;2022-09-27T10:49:44;24.50;85.50
11144;DHT22;5626;44.730;10.276;2022-09-27T10:52:33;24.50;85.50
11144;DHT22;5626;44.730;10.276;2022-09-27T10:55:07;24.50;85.10
11144;DHT22;5626;44.730;10.276;2022-09-27T10:57:48;24.60;85.50
11144;DHT22;5626;44.730;10.276;2022-09-27T11:00:22;24.80;84.20
11144;DHT22;5626;44.730;10.276;2022-09-27T11:02:56;25.00;83.90
11144;DHT22;5626;44.730;10.276;2022-09-27T11:05:32;25.10;83.80
11144;DHT22;5626;44.730;10.276;2022-09-27T11:08:19;25.20;83.50
11144;DHT22;5626;44.730;10.276;2022-09-27T11:11:13;25.30;80.00
11144;DHT22;5626;44.730;10.276;2022-09-27T11:13:57;25.40;81.50
11144;DHT22;5626;44.730;10.276;2022-09-27T11:16:43;25.10;82.30
11144;DHT22;5626;44.730;10.276;2022-09-27T11:19:31;25.10;83.10
11144;DHT22;5626;44.730;10.276;2022-09-27T11:22:13;24.90;83.30
11144;DHT22;5626;44.730;10.276;2022-09-27T11:24:59;24.70;85.20
11144;DHT22;5626;44.730;10.276;2022-09-27T11:27:43;24.70;84.10
11144;DHT22;5626;44.730;10.276;2022-09-27T11:30:19;24.90;84.10
11144;DHT22;5626;44.730;10.276;2022-09-27T11:36:19;25.20;80.70
11144;DHT22;5626;44.730;10.276;2022-09-27T11:39:01;25.40;79.70
11144;DHT22;5626;44.730;10.276;2022-09-27T11:41:46;25.30;81.00
11144;DHT22;5626;44.730;10.276;2022-09-27T11:44:49;25.00;80.70
11144;DHT22;5626;44.730;10.276;2022-09-27T11:47:36;24.70;82.20
11144;DHT22;5626;44.730;10.276;2022-09-27T11:50:24;24.40;84.50
11144;DHT22;5626;44.730;10.276;2022-09-27T11:53:13;24.20;84.50
11144;DHT22;5626;44.730;10.276;2022-09-27T11:55:52;24.00;84.20
11144;DHT22;5626;44.730;10.276;2022-09-27T11:58:27;23.80;84.50
11144;DHT22;5626;44.730;10.276;2022-09-27T12:01:11;23.70;86.00
11144;DHT22;5626;44.730;10.276;2022-09-27T12:04:15;23.70;85.70
11144;DHT22;5626;44.730;10.276;2022-09-27T12:06:55;23.60;86.50
11144;DHT22;5626;44.730;10.276;2022-09-27T12:09:32;23.60;86.50
11144;DHT22;5626;44.730;10.276;2022-09-27T12:12:08;23.60;86.30
11144;DHT22;5626;44.730;10.276;2022-09-27T12:14:44;23.50;87.10
11144;DHT22;5626;44.730;10.276;2022-09-27T12:17:18;23.50;84.90
11144;DHT22;5626;44.730;10.276;2022-09-27T12:19:52;23.60;85.20
11144;DHT22;5626;44.730;10.276;2022-09-27T12:22:39;23.70;85.70
11144;DHT22;5626;44.730;10.276;2022-09-27T12:25:36;24.00;90.20
11144;DHT22;5626;44.730;10.276;2022-09-27T12:28:20;24.10;88.30
11144;DHT22;5626;44.730;10.276;2022-09-27T12:31:02;24.20;85.10
11144;DHT22;5626;44.730;10.276;2022-09-27T12:34:01;24.40;88.80
11144;DHT22;5626;44.730;10.276;2022-09-27T12:36:35;25.20;86.30
11144;DHT22;5626;44.730;10.276;2022-09-27T12:39:12;25.60;83.60
11144;DHT22;5626;44.730;10.276;2022-09-27T12:41:53;25.90;80.50
11144;DHT22;5626;44.730;10.276;2022-09-27T12:44:40;25.80;84.20
11144;DHT22;5626;44.730;10.276;2022-09-27T12:47:25;25.50;82.50
11144;DHT22;5626;44.730;10.276;2022-09-27T12:50:03;25.40;83.70
11144;DHT22;5626;44.730;10.276;2022-09-27T12:52:37;25.40;83.70
11144;DHT22;5626;44.730;10.276;2022-09-27T12:58:40;25.30;83.30
11144;DHT22;5626;44.730;10.276;2022-09-27T13:01:23;25.00;82.30
11144;DHT22;5626;44.730;10.276;2022-09-27T13:04:23;24.90;82.10
11144;DHT22;5626;44.730;10.276;2022-09-27T13:07:18;24.80;83.00
11144;DHT22;5626;44.730;10.276;2022-09-27T13:10:09;24.70;87.20
11144;DHT22;5626;44.730;10.276;2022-09-27T13:12:47;24.50;81.40
11144;DHT22;5626;44.730;10.276;2022-09-27T13:15:24;24.40;85.70
11144;DHT22;5626;44.730;10.276;2022-09-27T13:17:55;24.40;84.20
11144;DHT22;5626;44.730;10.276;2022-09-27T13:20:41;24.30;86.60
11144;DHT22;5626;44.730;10.276;2022-09-27T13:23:50;24.50;84.20
11144;DHT22;5626;44.730;10.276;2022-09-27T13:26:46;25.20;81.50
11144;DHT22;5626;44.730;10.276;2022-09-27T13:29:34;25.60;83.20
11144;DHT22;5626;44.730;10.276;2022-09-27T13:32:20;25.00;83.30
11144;DHT22;5626;44.730;10.276;2022-09-27T13:35:20;24.20;85.80
11144;DHT22;5626;44.730;10.276;2022-09-27T13:38:20;23.70;87.30
11144;DHT22;5626;44.730;10.276;2022-09-27T13:40:52;23.60;86.50
11144;DHT22;5626;44.730;10.276;2022-09-27T13:43:38;23.80;85.00
11144;DHT22;5626;44.730;10.276;2022-09-27T13:46:34;24.10;83.50
11144;DHT22;5626;44.730;10.276;2022-09-27T13:49:14;24.50;82.50
11144;DHT22;5626;44.730;10.276;2022-09-27T13:52:18;25.60;78.70
11144;DHT22;5626;44.730;10.276;2022-09-27T13:55:04;25.60;76.70
11144;DHT22;5626;44.730;10.276;2022-09-27T13:57:42;25.80;80.60
11144;DHT22;5626;44.730;10.276;2022-09-27T14:00:20;25.70;77.90
11144;DHT22;5626;44.730;10.276;2022-09-27T14:03:00;26.40;77.90
11144;DHT22;5626;44.730;10.276;2022-09-27T14:05:39;27.00;77.10
11144;DHT22;5626;44.730;10.276;2022-09-27T14:08:17;27.30;77.70
11144;DHT22;5626;44.730;10.276;2022-09-27T14:10:47;27.50;74.30
11144;DHT22;5626;44.730;10.276;2022-09-27T14:13:19;27.20;74.20
11144;DHT22;5626;44.730;10.276;2022-09-27T14:16:03;26.60;77.20
11144;DHT22;5626;44.730;10.276;2022-09-27T14:18:42;26.40;78.50
11144;DHT22;5626;44.730;10.276;2022-09-27T14:21:26;25.70;80.60
11144;DHT22;5626;44.730;10.276;2022-09-27T14:24:28;24.80;82.40
11144;DHT22;5626;44.730;10.276;2022-09-27T14:27:16;24.40;83.20
11144;DHT22;5626;44.730;10.276;2022-09-27T14:29:50;24.10;83.90
11144;DHT22;5626;44.730;10.276;2022-09-27T14:32:26;23.80;81.70
11144;DHT22;5626;44.730;10.276;2022-09-27T14:35:06;23.70;82.60
11144;DHT22;5626;44.730;10.276;2022-09-27T14:38:00;23.80;83.90
11144;DHT22;5626;44.730;10.276;2022-09-27T14:40:40;23.80;84.70
11144;DHT22;5626;44.730;10.276;2022-09-27T14:43:15;23.80;84.30
11144;DHT22;5626;44.730;10.276;2022-09-27T14:45:47;23.80;84.50
11144;DHT22;5626;44.730;10.276;2022-09-27T14:48:21;24.00;85.50
11144;DHT22;5626;44.730;10.276;2022-09-27T14:50:54;24.50;84.30
11144;DHT22;5626;44.730;10.276;2022-09-27T14:53:34;26.00;79.20
11144;DHT22;5626;44.730;10.276;2022-09-27T14:56:04;27.40;74.60
11144;DHT22;5626;44.730;10.276;2022-09-27T14:58:34;27.80;73.00
11144;DHT22;5626;44.730;10.276;2022-09-27T15:01:15;27.80;69.90
11144;DHT22;5626;44.730;10.276;2022-09-27T15:03:46;26.90;72.70
11144;DHT22;5626;44.730;10.276;2022-09-27T15:06:17;26.60;72.40
11144;DHT22;5626;44.730;10.276;2022-09-27T15:08:49;26.20;74.80
11144;DHT22;5626;44.730;10.276;2022-09-27T15:11:19;25.00;76.40
11144;DHT22;5626;44.730;10.276;2022-09-27T15:13:51;24.40;78.60
11144;DHT22;5626;44.730;10.276;2022-09-27T15:16:22;24.00;79.00
11144;DHT22;5626;44.730;10.276;2022-09-27T15:19:10;23.60;81.10
11144;DHT22;5626;44.730;10.276;2022-09-27T15:21:41;23.20;82.20
11144;DHT22;5626;44.730;10.276;2022-09-27T15:24:36;23.10;81.10
11144;DHT22;5626;44.730;10.276;2022-09-27T15:27:13;23.10;81.80
11144;DHT22;5626;44.730;10.276;2022-09-27T15:29:48;23.10;81.00
11144;DHT22;5626;44.730;10.276;2022-09-27T15:32:20;23.10;79.50
11144;DHT22;5626;44.730;10.276;2022-09-27T15:34:51;23.40;79.20
11144;DHT22;5626;44.730;10.276;2022-09-27T15:37:26;23.80;79.00
11144;DHT22;5626;44.730;10.276;2022-09-27T15:40:19;24.30;78.60
11144;DHT22;5626;44.730;10.276;2022-09-27T15:42:58;24.80;77.30
11144;DHT22;5626;44.730;10.276;2022-09-27T15:45:29;25.20;75.00
11144;DHT22;5626;44.730;10.276;2022-09-27T15:48:07;25.30;73.80
11144;DHT22;5626;44.730;10.276;2022-09-27T15:50:41;25.00;74.00
11144;DHT22;5626;44.730;10.276;2022-09-27T15:53:12;24.10;76.30
11144;DHT22;5626;44.730;10.276;2022-09-27T15:56:04;24.10;75.70
11144;DHT22;5626;44.730;10.276;2022-09-27T15:58:34;24.20;76.30
11144;DHT22;5626;44.730;10.276;2022-09-27T16:01:04;24.20;76.70
11144;DHT22;5626;44.730;10.276;2022-09-27T16:03:34;24.60;74.80
11144;DHT22;5626;44.730;10.276;2022-09-27T16:06:04;24.50;75.20
11144;DHT22;5626;44.730;10.276;2022-09-27T16:08:33;24.70;73.90
11144;DHT22;5626;44.730;10.276;2022-09-27T16:11:05;24.80;74.20
11144;DHT22;5626;44.730;10.276;2022-09-27T16:13:34;24.80;74.00
11144;DHT22;5626;44.730;10.276;2022-09-27T16:16:04;24.70;75.20
11144;DHT22;5626;44.730;10.276;2022-09-27T16:18:34;23.60;78.00
11144;DHT22;5626;44.730;10.276;2022-09-27T16:21:04;22.60;80.70
11144;DHT22;5626;44.730;10.276;2022-09-27T16:23:33;22.00;82.00
11144;DHT22;5626;44.730;10.276;2022-09-27T16:26:05;21.70;83.20
11144;DHT22;5626;44.730;10.276;2022-09-27T16:28:34;21.40;84.90
11144;DHT22;5626;44.730;10.276;2022-09-27T16:31:05;21.20;85.50
11144;DHT22;5626;44.730;10.276;2022-09-27T16:33:34;21.10;86.20
11144;DHT22;5626;44.730;10.276;2022-09-27T16:36:06;21.00;84.60
11144;DHT22;5626;44.730;10.276;2022-09-27T16:38:41;20.90;85.30
11144;DHT22;5626;44.730;10.276;2022-09-27T16:41:13;20.90;85.80
11144;DHT22;5626;44.730;10.276;2022-09-27T16:43:43;20.80;86.40
11144;DHT22;5626;44.730;10.276;2022-09-27T16:46:14;20.70;86.70
11144;DHT22;5626;44.730;10.276;2022-09-27T16:48:46;20.60;85.10
11144;DHT22;5626;44.730;10.276;2022-09-27T16:51:18;20.60;85.40
11144;DHT22;5626;44.730;10.276;2022-09-27T16:54:06;20.60;86.60